Hlavní strana
METAR-TAF:

METAR-TAF

Letiště :

Enontekiö, Finsko

zeměpisná šířka: 68-21-52N, zeměpisná délka: 023-25-39E, výška: 308 m

Aktuální stav počasí

Zpráva byla vytvořena před 38 minutami, v 03:20 UTC
Východoseverovýchodní vítr 2 kt
Teplota -9°C
Vlhkost vzduchu 85%
Tlak 1021 hPa
Viditelnost 10 km a více
Žádná oblačnost pod 1500 m, nevyskytují se cumulonimby.

METAR: EFET 180320Z AUTO 07002KT CAVOK M09/M11 Q1021

Čas: 05:58 (03:58 UTC)


TAF: chybějící

Stav a předpovědi počasí z více než 4 000 letišť (zprávy METAR a TAF).

Červené a žluté tečky na mapě představují dostupné meteorologické stanice.

Když kurzor umístíte na tečku, zobrazí se název stanice.

Pak kliknutím zobrazíte stav a předpověď počasí.

Chcete-li změnit mapu, kliknutím na zelené tlačítko se znaménkem +mapu přiblížíte, kliknutím na zelené tlačítko se znaménkem – mapu oddálíte a kliknutím na zelené šipky přejdete na sousední mapy.


METAR-TAF: